sensor_id;sensor_type;location;lat;lon;timestamp;P1;durP1;ratioP1;P2;durP2;ratioP2
13425;SDS011;6785;57.918;12.530;2023-06-22T00:01:19;13.53;;;6.57;;
13425;SDS011;6785;57.918;12.530;2023-06-22T00:03:47;14.67;;;6.60;;
13425;SDS011;6785;57.918;12.530;2023-06-22T00:06:14;12.33;;;5.60;;
13425;SDS011;6785;57.918;12.530;2023-06-22T00:08:42;9.47;;;5.40;;
13425;SDS011;6785;57.918;12.530;2023-06-22T00:11:09;9.73;;;6.20;;
13425;SDS011;6785;57.918;12.530;2023-06-22T00:13:37;9.27;;;6.93;;
13425;SDS011;6785;57.918;12.530;2023-06-22T00:16:04;11.93;;;6.60;;
13425;SDS011;6785;57.918;12.530;2023-06-22T00:18:31;11.20;;;6.60;;
13425;SDS011;6785;57.918;12.530;2023-06-22T00:20:59;12.30;;;6.40;;
13425;SDS011;6785;57.918;12.530;2023-06-22T00:23:26;10.57;;;6.83;;
13425;SDS011;6785;57.918;12.530;2023-06-22T00:25:54;11.70;;;6.63;;
13425;SDS011;6785;57.918;12.530;2023-06-22T00:28:21;11.80;;;6.97;;
13425;SDS011;6785;57.918;12.530;2023-06-22T00:30:48;15.17;;;7.43;;
13425;SDS011;6785;57.918;12.530;2023-06-22T00:33:15;15.47;;;7.60;;
13425;SDS011;6785;57.918;12.530;2023-06-22T00:35:42;12.27;;;7.17;;
13425;SDS011;6785;57.918;12.530;2023-06-22T00:38:09;12.10;;;7.40;;
13425;SDS011;6785;57.918;12.530;2023-06-22T00:40:36;10.50;;;6.77;;
13425;SDS011;6785;57.918;12.530;2023-06-22T00:43:05;11.50;;;7.33;;
13425;SDS011;6785;57.918;12.530;2023-06-22T00:45:32;9.40;;;6.80;;
13425;SDS011;6785;57.918;12.530;2023-06-22T00:47:59;14.60;;;7.63;;
13425;SDS011;6785;57.918;12.530;2023-06-22T00:50:27;15.13;;;7.57;;
13425;SDS011;6785;57.918;12.530;2023-06-22T00:52:59;15.30;;;7.73;;
13425;SDS011;6785;57.918;12.530;2023-06-22T00:55:32;14.43;;;7.10;;
13425;SDS011;6785;57.918;12.530;2023-06-22T00:58:05;14.13;;;6.90;;
13425;SDS011;6785;57.918;12.530;2023-06-22T01:00:35;12.70;;;7.10;;
13425;SDS011;6785;57.918;12.530;2023-06-22T01:03:03;13.40;;;7.30;;
13425;SDS011;6785;57.918;12.530;2023-06-22T01:05:33;11.93;;;6.97;;
13425;SDS011;6785;57.918;12.530;2023-06-22T01:08:05;16.90;;;7.10;;
13425;SDS011;6785;57.918;12.530;2023-06-22T01:10:46;12.67;;;6.43;;
13425;SDS011;6785;57.918;12.530;2023-06-22T01:13:25;15.07;;;7.30;;
13425;SDS011;6785;57.918;12.530;2023-06-22T01:16:00;11.87;;;6.90;;
13425;SDS011;6785;57.918;12.530;2023-06-22T01:18:32;14.60;;;6.87;;
13425;SDS011;6785;57.918;12.530;2023-06-22T01:21:02;13.73;;;6.57;;
13425;SDS011;6785;57.918;12.530;2023-06-22T01:23:37;10.27;;;6.43;;
13425;SDS011;6785;57.918;12.530;2023-06-22T01:26:21;15.70;;;7.03;;
13425;SDS011;6785;57.918;12.530;2023-06-22T01:29:02;9.63;;;6.77;;
13425;SDS011;6785;57.918;12.530;2023-06-22T01:31:32;14.63;;;6.70;;
13425;SDS011;6785;57.918;12.530;2023-06-22T01:34:01;13.83;;;6.97;;
13425;SDS011;6785;57.918;12.530;2023-06-22T01:36:32;13.60;;;6.73;;
13425;SDS011;6785;57.918;12.530;2023-06-22T01:39:02;13.07;;;7.07;;
13425;SDS011;6785;57.918;12.530;2023-06-22T01:41:33;11.90;;;6.70;;
13425;SDS011;6785;57.918;12.530;2023-06-22T01:44:05;10.30;;;6.70;;
13425;SDS011;6785;57.918;12.530;2023-06-22T01:46:33;14.30;;;6.73;;
13425;SDS011;6785;57.918;12.530;2023-06-22T01:49:02;12.23;;;7.40;;
13425;SDS011;6785;57.918;12.530;2023-06-22T01:51:30;17.20;;;6.87;;
13425;SDS011;6785;57.918;12.530;2023-06-22T01:53:57;13.73;;;7.13;;
13425;SDS011;6785;57.918;12.530;2023-06-22T01:56:23;10.10;;;6.37;;
13425;SDS011;6785;57.918;12.530;2023-06-22T01:58:55;13.13;;;6.57;;
13425;SDS011;6785;57.918;12.530;2023-06-22T02:01:35;12.70;;;6.13;;
13425;SDS011;6785;57.918;12.530;2023-06-22T02:04:11;9.50;;;5.80;;
13425;SDS011;6785;57.918;12.530;2023-06-22T02:06:46;8.87;;;6.00;;
13425;SDS011;6785;57.918;12.530;2023-06-22T02:09:21;9.67;;;6.50;;
13425;SDS011;6785;57.918;12.530;2023-06-22T02:11:51;14.23;;;5.97;;
13425;SDS011;6785;57.918;12.530;2023-06-22T02:14:23;11.43;;;6.40;;
13425;SDS011;6785;57.918;12.530;2023-06-22T02:16:51;15.90;;;6.10;;
13425;SDS011;6785;57.918;12.530;2023-06-22T02:19:22;12.07;;;6.27;;
13425;SDS011;6785;57.918;12.530;2023-06-22T02:21:49;12.67;;;6.53;;
13425;SDS011;6785;57.918;12.530;2023-06-22T02:24:17;8.67;;;6.30;;
13425;SDS011;6785;57.918;12.530;2023-06-22T02:26:43;9.83;;;6.40;;
13425;SDS011;6785;57.918;12.530;2023-06-22T02:29:11;10.90;;;6.27;;
13425;SDS011;6785;57.918;12.530;2023-06-22T02:31:39;10.43;;;5.70;;
13425;SDS011;6785;57.918;12.530;2023-06-22T02:34:06;17.83;;;6.83;;
13425;SDS011;6785;57.918;12.530;2023-06-22T02:36:33;15.20;;;6.67;;
13425;SDS011;6785;57.918;12.530;2023-06-22T02:39:00;13.93;;;5.90;;
13425;SDS011;6785;57.918;12.530;2023-06-22T02:41:28;12.47;;;5.63;;
13425;SDS011;6785;57.918;12.530;2023-06-22T02:46:29;14.50;;;6.73;;
13425;SDS011;6785;57.918;12.530;2023-06-22T02:48:58;13.47;;;5.90;;
13425;SDS011;6785;57.918;12.530;2023-06-22T02:51:25;13.73;;;6.37;;
13425;SDS011;6785;57.918;12.530;2023-06-22T02:53:52;12.60;;;6.23;;
13425;SDS011;6785;57.918;12.530;2023-06-22T02:56:22;11.87;;;5.93;;
13425;SDS011;6785;57.918;12.530;2023-06-22T02:58:50;14.77;;;6.33;;
13425;SDS011;6785;57.918;12.530;2023-06-22T03:01:17;11.87;;;5.60;;
13425;SDS011;6785;57.918;12.530;2023-06-22T03:03:48;8.67;;;5.60;;
13425;SDS011;6785;57.918;12.530;2023-06-22T03:06:16;11.70;;;6.63;;
13425;SDS011;6785;57.918;12.530;2023-06-22T03:08:48;11.97;;;5.50;;
13425;SDS011;6785;57.918;12.530;2023-06-22T03:11:15;12.40;;;6.40;;
13425;SDS011;6785;57.918;12.530;2023-06-22T03:13:42;14.77;;;6.40;;
13425;SDS011;6785;57.918;12.530;2023-06-22T03:16:10;11.67;;;5.67;;
13425;SDS011;6785;57.918;12.530;2023-06-22T03:18:37;10.60;;;5.97;;
13425;SDS011;6785;57.918;12.530;2023-06-22T03:21:04;12.90;;;6.20;;
13425;SDS011;6785;57.918;12.530;2023-06-22T03:23:33;11.97;;;5.73;;
13425;SDS011;6785;57.918;12.530;2023-06-22T03:25:59;15.70;;;6.10;;
13425;SDS011;6785;57.918;12.530;2023-06-22T03:28:27;14.73;;;6.10;;
13425;SDS011;6785;57.918;12.530;2023-06-22T03:30:54;16.40;;;6.57;;
13425;SDS011;6785;57.918;12.530;2023-06-22T03:33:23;16.10;;;6.63;;
13425;SDS011;6785;57.918;12.530;2023-06-22T03:35:50;14.13;;;6.10;;
13425;SDS011;6785;57.918;12.530;2023-06-22T03:38:18;17.90;;;6.37;;
13425;SDS011;6785;57.918;12.530;2023-06-22T03:40:47;14.37;;;5.90;;
13425;SDS011;6785;57.918;12.530;2023-06-22T03:43:14;12.10;;;5.77;;
13425;SDS011;6785;57.918;12.530;2023-06-22T03:45:41;18.97;;;6.40;;
13425;SDS011;6785;57.918;12.530;2023-06-22T03:48:10;12.80;;;6.37;;
13425;SDS011;6785;57.918;12.530;2023-06-22T03:50:37;17.57;;;5.97;;
13425;SDS011;6785;57.918;12.530;2023-06-22T03:53:04;11.27;;;6.17;;
13425;SDS011;6785;57.918;12.530;2023-06-22T03:55:33;12.37;;;6.20;;
13425;SDS011;6785;57.918;12.530;2023-06-22T03:58:01;12.27;;;6.30;;
13425;SDS011;6785;57.918;12.530;2023-06-22T04:00:30;11.20;;;5.93;;
13425;SDS011;6785;57.918;12.530;2023-06-22T04:02:58;12.27;;;5.97;;
13425;SDS011;6785;57.918;12.530;2023-06-22T04:05:24;17.53;;;6.27;;
13425;SDS011;6785;57.918;12.530;2023-06-22T04:07:51;13.50;;;6.17;;
13425;SDS011;6785;57.918;12.530;2023-06-22T04:10:18;12.37;;;5.67;;
13425;SDS011;6785;57.918;12.530;2023-06-22T04:12:45;10.67;;;6.47;;
13425;SDS011;6785;57.918;12.530;2023-06-22T04:15:14;14.27;;;6.13;;
13425;SDS011;6785;57.918;12.530;2023-06-22T04:17:41;10.23;;;5.97;;
13425;SDS011;6785;57.918;12.530;2023-06-22T04:20:08;11.87;;;6.20;;
13425;SDS011;6785;57.918;12.530;2023-06-22T04:22:36;12.47;;;6.07;;
13425;SDS011;6785;57.918;12.530;2023-06-22T04:25:03;15.63;;;6.13;;
13425;SDS011;6785;57.918;12.530;2023-06-22T04:27:32;12.47;;;5.63;;
13425;SDS011;6785;57.918;12.530;2023-06-22T04:30:02;12.73;;;5.80;;
13425;SDS011;6785;57.918;12.530;2023-06-22T04:32:33;13.83;;;5.53;;
13425;SDS011;6785;57.918;12.530;2023-06-22T04:35:01;15.87;;;6.13;;
13425;SDS011;6785;57.918;12.530;2023-06-22T04:37:29;15.53;;;6.03;;
13425;SDS011;6785;57.918;12.530;2023-06-22T04:39:56;9.80;;;6.37;;
13425;SDS011;6785;57.918;12.530;2023-06-22T04:42:25;16.07;;;6.27;;
13425;SDS011;6785;57.918;12.530;2023-06-22T04:44:53;13.60;;;6.17;;
13425;SDS011;6785;57.918;12.530;2023-06-22T04:47:20;15.53;;;5.90;;
13425;SDS011;6785;57.918;12.530;2023-06-22T04:49:48;7.57;;;5.40;;
13425;SDS011;6785;57.918;12.530;2023-06-22T04:52:15;17.40;;;6.50;;
13425;SDS011;6785;57.918;12.530;2023-06-22T04:54:45;14.30;;;6.37;;
13425;SDS011;6785;57.918;12.530;2023-06-22T04:57:13;13.27;;;6.43;;
13425;SDS011;6785;57.918;12.530;2023-06-22T04:59:41;17.13;;;5.90;;
13425;SDS011;6785;57.918;12.530;2023-06-22T05:02:08;13.47;;;6.23;;
13425;SDS011;6785;57.918;12.530;2023-06-22T05:04:36;15.70;;;6.23;;
13425;SDS011;6785;57.918;12.530;2023-06-22T05:07:05;16.20;;;6.67;;
13425;SDS011;6785;57.918;12.530;2023-06-22T05:09:32;10.63;;;5.73;;
13425;SDS011;6785;57.918;12.530;2023-06-22T05:11:59;12.13;;;6.20;;
13425;SDS011;6785;57.918;12.530;2023-06-22T05:14:27;10.83;;;5.77;;
13425;SDS011;6785;57.918;12.530;2023-06-22T05:16:54;11.87;;;6.00;;
13425;SDS011;6785;57.918;12.530;2023-06-22T05:19:23;10.07;;;5.50;;
13425;SDS011;6785;57.918;12.530;2023-06-22T05:21:50;12.73;;;5.77;;
13425;SDS011;6785;57.918;12.530;2023-06-22T05:24:19;11.67;;;6.10;;
13425;SDS011;6785;57.918;12.530;2023-06-22T05:26:45;14.03;;;5.47;;
13425;SDS011;6785;57.918;12.530;2023-06-22T05:29:12;11.30;;;6.27;;
13425;SDS011;6785;57.918;12.530;2023-06-22T05:31:40;9.90;;;5.80;;
13425;SDS011;6785;57.918;12.530;2023-06-22T05:34:07;11.07;;;6.17;;
13425;SDS011;6785;57.918;12.530;2023-06-22T05:36:33;14.60;;;6.27;;
13425;SDS011;6785;57.918;12.530;2023-06-22T05:39:10;10.80;;;5.83;;
13425;SDS011;6785;57.918;12.530;2023-06-22T05:41:40;11.73;;;5.90;;
13425;SDS011;6785;57.918;12.530;2023-06-22T05:44:08;11.93;;;5.60;;
13425;SDS011;6785;57.918;12.530;2023-06-22T05:46:35;11.07;;;5.60;;
13425;SDS011;6785;57.918;12.530;2023-06-22T05:49:02;11.20;;;5.80;;
13425;SDS011;6785;57.918;12.530;2023-06-22T05:51:28;11.17;;;5.47;;
13425;SDS011;6785;57.918;12.530;2023-06-22T05:53:56;11.27;;;5.27;;
13425;SDS011;6785;57.918;12.530;2023-06-22T05:56:23;11.27;;;5.77;;
13425;SDS011;6785;57.918;12.530;2023-06-22T05:58:51;13.17;;;5.80;;
13425;SDS011;6785;57.918;12.530;2023-06-22T06:01:18;8.93;;;5.83;;
13425;SDS011;6785;57.918;12.530;2023-06-22T06:03:45;11.50;;;5.53;;
13425;SDS011;6785;57.918;12.530;2023-06-22T06:06:13;10.70;;;5.10;;
13425;SDS011;6785;57.918;12.530;2023-06-22T06:08:40;11.70;;;5.57;;
13425;SDS011;6785;57.918;12.530;2023-06-22T06:11:08;10.57;;;5.50;;
13425;SDS011;6785;57.918;12.530;2023-06-22T06:13:34;9.53;;;5.03;;
13425;SDS011;6785;57.918;12.530;2023-06-22T06:16:03;8.70;;;5.13;;
13425;SDS011;6785;57.918;12.530;2023-06-22T06:18:30;12.73;;;5.40;;
13425;SDS011;6785;57.918;12.530;2023-06-22T06:20:57;13.17;;;5.87;;
13425;SDS011;6785;57.918;12.530;2023-06-22T06:23:24;9.67;;;5.30;;
13425;SDS011;6785;57.918;12.530;2023-06-22T06:25:51;10.17;;;4.93;;
13425;SDS011;6785;57.918;12.530;2023-06-22T06:28:18;12.77;;;5.27;;
13425;SDS011;6785;57.918;12.530;2023-06-22T06:30:45;11.07;;;5.40;;
13425;SDS011;6785;57.918;12.530;2023-06-22T06:33:14;9.47;;;5.50;;
13425;SDS011;6785;57.918;12.530;2023-06-22T06:35:41;12.50;;;5.07;;
13425;SDS011;6785;57.918;12.530;2023-06-22T06:38:08;10.70;;;5.13;;
13425;SDS011;6785;57.918;12.530;2023-06-22T06:40:36;10.07;;;5.47;;
13425;SDS011;6785;57.918;12.530;2023-06-22T06:43:03;10.90;;;5.07;;
13425;SDS011;6785;57.918;12.530;2023-06-22T06:45:29;11.47;;;5.30;;
13425;SDS011;6785;57.918;12.530;2023-06-22T06:47:58;13.07;;;5.87;;
13425;SDS011;6785;57.918;12.530;2023-06-22T06:50:26;9.43;;;4.67;;
13425;SDS011;6785;57.918;12.530;2023-06-22T06:52:54;9.70;;;4.73;;
13425;SDS011;6785;57.918;12.530;2023-06-22T06:55:22;10.73;;;4.93;;
13425;SDS011;6785;57.918;12.530;2023-06-22T06:57:50;9.27;;;5.10;;
13425;SDS011;6785;57.918;12.530;2023-06-22T07:00:18;8.77;;;4.73;;
13425;SDS011;6785;57.918;12.530;2023-06-22T07:02:46;9.33;;;4.90;;
13425;SDS011;6785;57.918;12.530;2023-06-22T07:05:13;6.27;;;4.43;;
13425;SDS011;6785;57.918;12.530;2023-06-22T07:07:42;9.40;;;4.90;;
13425;SDS011;6785;57.918;12.530;2023-06-22T07:10:09;9.00;;;4.77;;
13425;SDS011;6785;57.918;12.530;2023-06-22T07:12:36;10.87;;;4.90;;
13425;SDS011;6785;57.918;12.530;2023-06-22T07:15:04;12.40;;;4.57;;
13425;SDS011;6785;57.918;12.530;2023-06-22T07:17:33;8.87;;;4.67;;
13425;SDS011;6785;57.918;12.530;2023-06-22T07:20:00;9.70;;;5.20;;
13425;SDS011;6785;57.918;12.530;2023-06-22T07:22:33;9.93;;;4.67;;
13425;SDS011;6785;57.918;12.530;2023-06-22T07:25:02;13.00;;;5.33;;
13425;SDS011;6785;57.918;12.530;2023-06-22T07:27:34;12.03;;;5.03;;
13425;SDS011;6785;57.918;12.530;2023-06-22T07:30:04;9.47;;;4.10;;
13425;SDS011;6785;57.918;12.530;2023-06-22T07:32:32;10.80;;;5.17;;
13425;SDS011;6785;57.918;12.530;2023-06-22T07:34:59;8.83;;;4.47;;
13425;SDS011;6785;57.918;12.530;2023-06-22T07:37:27;11.60;;;4.60;;
13425;SDS011;6785;57.918;12.530;2023-06-22T07:39:54;9.50;;;4.90;;
13425;SDS011;6785;57.918;12.530;2023-06-22T07:42:25;9.13;;;4.13;;
13425;SDS011;6785;57.918;12.530;2023-06-22T07:44:52;7.73;;;4.10;;
13425;SDS011;6785;57.918;12.530;2023-06-22T07:47:21;7.30;;;4.40;;
13425;SDS011;6785;57.918;12.530;2023-06-22T07:49:50;8.60;;;4.60;;
13425;SDS011;6785;57.918;12.530;2023-06-22T07:52:19;7.70;;;5.07;;
13425;SDS011;6785;57.918;12.530;2023-06-22T07:54:47;14.43;;;4.80;;
13425;SDS011;6785;57.918;12.530;2023-06-22T07:57:14;9.50;;;4.57;;
13425;SDS011;6785;57.918;12.530;2023-06-22T07:59:42;10.83;;;4.77;;
13425;SDS011;6785;57.918;12.530;2023-06-22T08:02:09;9.93;;;4.80;;
13425;SDS011;6785;57.918;12.530;2023-06-22T08:04:36;10.23;;;4.63;;
13425;SDS011;6785;57.918;12.530;2023-06-22T08:07:03;9.93;;;5.03;;
13425;SDS011;6785;57.918;12.530;2023-06-22T08:09:31;12.17;;;4.70;;
13425;SDS011;6785;57.918;12.530;2023-06-22T08:11:59;10.30;;;4.60;;
13425;SDS011;6785;57.918;12.530;2023-06-22T08:14:26;11.23;;;4.57;;
13425;SDS011;6785;57.918;12.530;2023-06-22T08:16:57;9.33;;;4.40;;
13425;SDS011;6785;57.918;12.530;2023-06-22T08:19:24;7.67;;;4.67;;
13425;SDS011;6785;57.918;12.530;2023-06-22T08:21:51;9.87;;;4.27;;
13425;SDS011;6785;57.918;12.530;2023-06-22T08:24:17;9.93;;;4.20;;
13425;SDS011;6785;57.918;12.530;2023-06-22T08:26:44;9.33;;;4.83;;
13425;SDS011;6785;57.918;12.530;2023-06-22T08:29:11;9.63;;;4.55;;
13425;SDS011;6785;57.918;12.530;2023-06-22T08:31:39;9.90;;;4.53;;
13425;SDS011;6785;57.918;12.530;2023-06-22T08:34:08;9.40;;;4.53;;
13425;SDS011;6785;57.918;12.530;2023-06-22T08:36:35;9.87;;;4.67;;
13425;SDS011;6785;57.918;12.530;2023-06-22T08:39:06;11.73;;;4.60;;
13425;SDS011;6785;57.918;12.530;2023-06-22T08:41:34;11.57;;;4.72;;
13425;SDS011;6785;57.918;12.530;2023-06-22T08:44:01;6.67;;;4.57;;
13425;SDS011;6785;57.918;12.530;2023-06-22T08:46:29;9.80;;;4.63;;
13425;SDS011;6785;57.918;12.530;2023-06-22T08:48:58;8.70;;;4.10;;
13425;SDS011;6785;57.918;12.530;2023-06-22T08:51:27;5.93;;;4.07;;
13425;SDS011;6785;57.918;12.530;2023-06-22T08:53:54;7.18;;;4.13;;
13425;SDS011;6785;57.918;12.530;2023-06-22T08:56:21;9.80;;;4.00;;
13425;SDS011;6785;57.918;12.530;2023-06-22T08:58:49;8.05;;;4.00;;
13425;SDS011;6785;57.918;12.530;2023-06-22T09:01:16;8.95;;;4.20;;
13425;SDS011;6785;57.918;12.530;2023-06-22T09:03:43;7.85;;;4.35;;
13425;SDS011;6785;57.918;12.530;2023-06-22T09:06:19;10.07;;;4.35;;
13425;SDS011;6785;57.918;12.530;2023-06-22T09:08:48;6.83;;;4.00;;
13425;SDS011;6785;57.918;12.530;2023-06-22T09:11:15;8.33;;;4.20;;
13425;SDS011;6785;57.918;12.530;2023-06-22T09:13:42;6.37;;;3.90;;
13425;SDS011;6785;57.918;12.530;2023-06-22T09:16:09;8.33;;;4.60;;
13425;SDS011;6785;57.918;12.530;2023-06-22T09:18:37;9.97;;;3.70;;
13425;SDS011;6785;57.918;12.530;2023-06-22T09:21:04;5.60;;;3.97;;
13425;SDS011;6785;57.918;12.530;2023-06-22T09:23:30;12.40;;;4.17;;
13425;SDS011;6785;57.918;12.530;2023-06-22T09:26:00;7.60;;;4.37;;
13425;SDS011;6785;57.918;12.530;2023-06-22T09:28:27;7.97;;;4.03;;
13425;SDS011;6785;57.918;12.530;2023-06-22T09:30:54;10.60;;;4.20;;
13425;SDS011;6785;57.918;12.530;2023-06-22T09:33:23;6.23;;;3.67;;
13425;SDS011;6785;57.918;12.530;2023-06-22T09:35:50;7.93;;;3.80;;
13425;SDS011;6785;57.918;12.530;2023-06-22T09:38:17;6.80;;;3.63;;
13425;SDS011;6785;57.918;12.530;2023-06-22T09:40:44;9.17;;;3.87;;
13425;SDS011;6785;57.918;12.530;2023-06-22T09:43:12;7.03;;;4.70;;
13425;SDS011;6785;57.918;12.530;2023-06-22T09:45:39;6.53;;;3.83;;
13425;SDS011;6785;57.918;12.530;2023-06-22T09:48:06;10.07;;;3.87;;
13425;SDS011;6785;57.918;12.530;2023-06-22T09:50:34;10.00;;;4.37;;
13425;SDS011;6785;57.918;12.530;2023-06-22T09:53:02;7.07;;;3.87;;
13425;SDS011;6785;57.918;12.530;2023-06-22T09:55:29;8.27;;;4.33;;
13425;SDS011;6785;57.918;12.530;2023-06-22T09:57:56;7.83;;;3.63;;
13425;SDS011;6785;57.918;12.530;2023-06-22T10:00:25;5.67;;;4.03;;
13425;SDS011;6785;57.918;12.530;2023-06-22T10:02:52;8.93;;;3.87;;
13425;SDS011;6785;57.918;12.530;2023-06-22T10:05:20;7.97;;;4.13;;
13425;SDS011;6785;57.918;12.530;2023-06-22T10:07:48;9.37;;;4.13;;
13425;SDS011;6785;57.918;12.530;2023-06-22T10:10:15;7.07;;;3.97;;
13425;SDS011;6785;57.918;12.530;2023-06-22T10:12:42;9.53;;;4.50;;
13425;SDS011;6785;57.918;12.530;2023-06-22T10:15:14;8.07;;;3.70;;
13425;SDS011;6785;57.918;12.530;2023-06-22T10:17:42;4.60;;;3.80;;
13425;SDS011;6785;57.918;12.530;2023-06-22T10:20:09;5.23;;;3.33;;
13425;SDS011;6785;57.918;12.530;2023-06-22T10:22:38;8.93;;;4.07;;
13425;SDS011;6785;57.918;12.530;2023-06-22T10:25:06;9.53;;;4.40;;
13425;SDS011;6785;57.918;12.530;2023-06-22T10:27:34;8.13;;;4.00;;
13425;SDS011;6785;57.918;12.530;2023-06-22T10:30:01;9.43;;;4.13;;
13425;SDS011;6785;57.918;12.530;2023-06-22T10:32:30;5.43;;;3.60;;
13425;SDS011;6785;57.918;12.530;2023-06-22T10:35:00;7.50;;;4.10;;
13425;SDS011;6785;57.918;12.530;2023-06-22T10:37:27;5.97;;;3.97;;
13425;SDS011;6785;57.918;12.530;2023-06-22T10:39:54;7.80;;;3.53;;
13425;SDS011;6785;57.918;12.530;2023-06-22T10:42:20;7.23;;;3.80;;
13425;SDS011;6785;57.918;12.530;2023-06-22T10:44:50;5.97;;;3.73;;
13425;SDS011;6785;57.918;12.530;2023-06-22T10:47:17;7.17;;;3.50;;
13425;SDS011;6785;57.918;12.530;2023-06-22T10:49:45;6.37;;;3.37;;
13425;SDS011;6785;57.918;12.530;2023-06-22T10:52:15;5.38;;;3.33;;
13425;SDS011;6785;57.918;12.530;2023-06-22T10:54:42;7.45;;;3.72;;
13425;SDS011;6785;57.918;12.530;2023-06-22T10:57:09;5.18;;;3.35;;
13425;SDS011;6785;57.918;12.530;2023-06-22T10:59:36;8.65;;;3.33;;
13425;SDS011;6785;57.918;12.530;2023-06-22T11:02:03;5.78;;;3.40;;
13425;SDS011;6785;57.918;12.530;2023-06-22T11:04:31;5.93;;;3.35;;
13425;SDS011;6785;57.918;12.530;2023-06-22T11:06:58;5.28;;;3.30;;
13425;SDS011;6785;57.918;12.530;2023-06-22T11:09:26;5.15;;;3.70;;
13425;SDS011;6785;57.918;12.530;2023-06-22T11:11:53;6.28;;;3.17;;
13425;SDS011;6785;57.918;12.530;2023-06-22T11:14:23;6.18;;;3.70;;
13425;SDS011;6785;57.918;12.530;2023-06-22T11:16:51;7.35;;;3.60;;
13425;SDS011;6785;57.918;12.530;2023-06-22T11:19:18;7.45;;;3.50;;
13425;SDS011;6785;57.918;12.530;2023-06-22T11:21:45;5.83;;;3.27;;
13425;SDS011;6785;57.918;12.530;2023-06-22T11:24:12;6.60;;;4.00;;
13425;SDS011;6785;57.918;12.530;2023-06-22T11:26:40;5.90;;;3.63;;
13425;SDS011;6785;57.918;12.530;2023-06-22T11:29:07;8.30;;;3.63;;
13425;SDS011;6785;57.918;12.530;2023-06-22T11:31:34;6.90;;;3.67;;
13425;SDS011;6785;57.918;12.530;2023-06-22T11:34:02;6.07;;;3.63;;
13425;SDS011;6785;57.918;12.530;2023-06-22T11:36:29;5.43;;;3.60;;
13425;SDS011;6785;57.918;12.530;2023-06-22T11:38:57;5.97;;;3.57;;
13425;SDS011;6785;57.918;12.530;2023-06-22T11:41:25;6.83;;;3.70;;
13425;SDS011;6785;57.918;12.530;2023-06-22T11:43:53;7.07;;;3.93;;
13425;SDS011;6785;57.918;12.530;2023-06-22T11:46:20;6.00;;;3.70;;
13425;SDS011;6785;57.918;12.530;2023-06-22T11:48:47;5.43;;;3.90;;
13425;SDS011;6785;57.918;12.530;2023-06-22T11:51:13;6.13;;;3.63;;
13425;SDS011;6785;57.918;12.530;2023-06-22T11:53:40;6.47;;;4.07;;
13425;SDS011;6785;57.918;12.530;2023-06-22T11:56:07;4.40;;;3.60;;
13425;SDS011;6785;57.918;12.530;2023-06-22T11:58:34;5.83;;;3.43;;
13425;SDS011;6785;57.918;12.530;2023-06-22T12:01:02;6.47;;;3.93;;
13425;SDS011;6785;57.918;12.530;2023-06-22T12:03:33;5.93;;;3.67;;
13425;SDS011;6785;57.918;12.530;2023-06-22T12:06:00;6.83;;;3.53;;
13425;SDS011;6785;57.918;12.530;2023-06-22T12:08:27;8.43;;;3.67;;
13425;SDS011;6785;57.918;12.530;2023-06-22T12:10:54;6.47;;;3.67;;
13425;SDS011;6785;57.918;12.530;2023-06-22T12:13:21;7.00;;;3.90;;
13425;SDS011;6785;57.918;12.530;2023-06-22T12:15:48;4.83;;;3.47;;
13425;SDS011;6785;57.918;12.530;2023-06-22T12:18:18;10.50;;;3.70;;
13425;SDS011;6785;57.918;12.530;2023-06-22T12:20:46;6.87;;;3.20;;
13425;SDS011;6785;57.918;12.530;2023-06-22T12:23:14;5.90;;;3.27;;
13425;SDS011;6785;57.918;12.530;2023-06-22T12:25:41;7.40;;;3.77;;
13425;SDS011;6785;57.918;12.530;2023-06-22T12:28:08;7.65;;;3.78;;
13425;SDS011;6785;57.918;12.530;2023-06-22T12:30:35;7.75;;;3.33;;
13425;SDS011;6785;57.918;12.530;2023-06-22T12:33:02;6.37;;;3.60;;
13425;SDS011;6785;57.918;12.530;2023-06-22T12:35:31;4.00;;;3.50;;
13425;SDS011;6785;57.918;12.530;2023-06-22T12:37:58;5.07;;;3.13;;
13425;SDS011;6785;57.918;12.530;2023-06-22T12:40:25;6.73;;;3.80;;
13425;SDS011;6785;57.918;12.530;2023-06-22T12:42:52;6.87;;;3.70;;
13425;SDS011;6785;57.918;12.530;2023-06-22T12:45:19;8.33;;;3.50;;
13425;SDS011;6785;57.918;12.530;2023-06-22T12:47:46;4.43;;;3.23;;
13425;SDS011;6785;57.918;12.530;2023-06-22T12:50:15;6.53;;;3.20;;
13425;SDS011;6785;57.918;12.530;2023-06-22T12:52:43;4.87;;;3.57;;
13425;SDS011;6785;57.918;12.530;2023-06-22T12:55:10;7.37;;;3.20;;
13425;SDS011;6785;57.918;12.530;2023-06-22T12:57:37;13.30;;;3.47;;
13425;SDS011;6785;57.918;12.530;2023-06-22T13:00:06;3.97;;;3.27;;
13425;SDS011;6785;57.918;12.530;2023-06-22T13:02:35;6.10;;;3.10;;
13425;SDS011;6785;57.918;12.530;2023-06-22T13:05:02;7.30;;;3.50;;
13425;SDS011;6785;57.918;12.530;2023-06-22T13:07:31;5.90;;;3.27;;
13425;SDS011;6785;57.918;12.530;2023-06-22T13:09:59;6.93;;;3.73;;
13425;SDS011;6785;57.918;12.530;2023-06-22T13:12:26;7.88;;;4.03;;
13425;SDS011;6785;57.918;12.530;2023-06-22T13:14:53;7.50;;;3.90;;
13425;SDS011;6785;57.918;12.530;2023-06-22T13:17:20;8.38;;;3.78;;
13425;SDS011;6785;57.918;12.530;2023-06-22T13:19:47;4.72;;;3.70;;
13425;SDS011;6785;57.918;12.530;2023-06-22T13:22:27;8.52;;;3.90;;
13425;SDS011;6785;57.918;12.530;2023-06-22T13:24:57;4.73;;;3.63;;
13425;SDS011;6785;57.918;12.530;2023-06-22T13:27:27;5.67;;;3.37;;
13425;SDS011;6785;57.918;12.530;2023-06-22T13:29:54;6.10;;;3.60;;
13425;SDS011;6785;57.918;12.530;2023-06-22T13:32:21;8.75;;;3.38;;
13425;SDS011;6785;57.918;12.530;2023-06-22T13:34:48;6.60;;;3.30;;
13425;SDS011;6785;57.918;12.530;2023-06-22T13:37:15;5.43;;;3.70;;
13425;SDS011;6785;57.918;12.530;2023-06-22T13:39:42;5.20;;;3.90;;
13425;SDS011;6785;57.918;12.530;2023-06-22T13:42:10;5.60;;;3.80;;
13425;SDS011;6785;57.918;12.530;2023-06-22T13:44:38;6.67;;;3.77;;
13425;SDS011;6785;57.918;12.530;2023-06-22T13:47:05;5.53;;;3.57;;
13425;SDS011;6785;57.918;12.530;2023-06-22T13:49:32;9.07;;;4.00;;
13425;SDS011;6785;57.918;12.530;2023-06-22T13:51:59;6.20;;;3.53;;
13425;SDS011;6785;57.918;12.530;2023-06-22T13:54:28;5.80;;;3.70;;
13425;SDS011;6785;57.918;12.530;2023-06-22T13:56:55;4.85;;;3.30;;
13425;SDS011;6785;57.918;12.530;2023-06-22T13:59:23;4.55;;;3.47;;
13425;SDS011;6785;57.918;12.530;2023-06-22T14:01:53;6.68;;;3.72;;
13425;SDS011;6785;57.918;12.530;2023-06-22T14:04:21;5.18;;;3.88;;
13425;SDS011;6785;57.918;12.530;2023-06-22T14:06:49;5.35;;;3.20;;
13425;SDS011;6785;57.918;12.530;2023-06-22T14:09:16;5.25;;;2.80;;
13425;SDS011;6785;57.918;12.530;2023-06-22T14:11:42;4.20;;;3.05;;
13425;SDS011;6785;57.918;12.530;2023-06-22T14:14:09;3.80;;;2.85;;
13425;SDS011;6785;57.918;12.530;2023-06-22T14:16:37;4.05;;;2.78;;
13425;SDS011;6785;57.918;12.530;2023-06-22T14:19:04;7.55;;;3.28;;
13425;SDS011;6785;57.918;12.530;2023-06-22T14:21:31;5.18;;;3.35;;
13425;SDS011;6785;57.918;12.530;2023-06-22T14:23:59;3.42;;;3.00;;
13425;SDS011;6785;57.918;12.530;2023-06-22T14:26:26;4.70;;;2.80;;
13425;SDS011;6785;57.918;12.530;2023-06-22T14:28:53;4.85;;;2.80;;
13425;SDS011;6785;57.918;12.530;2023-06-22T14:31:21;4.88;;;3.08;;
13425;SDS011;6785;57.918;12.530;2023-06-22T14:33:53;3.00;;;2.70;;
13425;SDS011;6785;57.918;12.530;2023-06-22T14:36:20;6.10;;;3.05;;
13425;SDS011;6785;57.918;12.530;2023-06-22T14:38:48;4.68;;;3.58;;
13425;SDS011;6785;57.918;12.530;2023-06-22T14:41:15;4.50;;;3.20;;
13425;SDS011;6785;57.918;12.530;2023-06-22T14:43:45;5.97;;;3.10;;
13425;SDS011;6785;57.918;12.530;2023-06-22T14:46:13;6.90;;;3.00;;
13425;SDS011;6785;57.918;12.530;2023-06-22T14:48:41;5.00;;;3.37;;